createdAt,value
2022-09-11T04:00:29.166Z,998.01
2022-09-11T04:05:29.093Z,998.08
2022-09-11T04:10:29.038Z,998.16
2022-09-11T04:15:36.043Z,998.13
2022-09-11T04:20:28.933Z,998.29
2022-09-11T04:25:28.986Z,998.11
2022-09-11T04:30:28.818Z,998.24
2022-09-11T04:35:28.781Z,998.24
2022-09-11T04:40:28.708Z,998.28
2022-09-11T04:45:28.711Z,998.26
2022-09-11T04:50:28.600Z,998.32
2022-09-11T04:55:28.551Z,998.27
2022-09-11T05:00:28.486Z,998.39
2022-09-11T05:05:28.442Z,998.38
2022-09-11T05:10:28.367Z,998.44
2022-09-11T05:15:28.337Z,998.37
2022-09-11T05:20:28.278Z,998.55
2022-09-11T05:25:28.197Z,998.60
2022-09-11T05:30:28.160Z,998.68
2022-09-11T05:35:32.104Z,998.69
2022-09-11T05:40:28.035Z,998.78
2022-09-11T05:45:28.030Z,998.82
2022-09-11T05:50:28.085Z,998.94
2022-09-11T05:55:27.886Z,998.96
2022-09-11T06:00:27.853Z,999.02
2022-09-11T06:05:27.770Z,999.10
2022-09-11T06:10:27.703Z,999.13
2022-09-11T06:15:45.563Z,999.15
2022-09-11T06:20:28.619Z,999.22
2022-09-11T06:25:27.537Z,999.27
2022-09-11T06:30:27.513Z,999.26
2022-09-11T06:35:27.461Z,999.27
2022-09-11T06:40:27.385Z,999.38
2022-09-11T06:45:27.328Z,999.37
2022-09-11T06:50:27.276Z,999.43
2022-09-11T06:55:27.236Z,999.43
2022-09-11T07:00:27.166Z,999.51
2022-09-11T07:05:27.108Z,999.45
2022-09-11T07:10:27.057Z,999.53
2022-09-11T07:15:27.018Z,999.60
2022-09-11T07:20:26.945Z,999.66
2022-09-11T07:25:26.894Z,999.62
2022-09-11T07:30:26.899Z,999.69
2022-09-11T07:35:26.803Z,999.72
2022-09-11T07:40:26.729Z,999.76
2022-09-11T07:45:26.683Z,999.79
2022-09-11T07:50:26.607Z,999.81
2022-09-11T07:55:26.586Z,999.79
2022-09-11T08:00:26.884Z,999.92
2022-09-11T08:05:26.446Z,999.90
2022-09-11T08:10:27.913Z,999.95
2022-09-11T08:15:26.373Z,999.89
2022-09-11T08:20:26.286Z,1000.01
2022-09-11T08:25:26.243Z,1000.14
2022-09-11T08:30:26.185Z,1000.17
2022-09-11T08:35:26.150Z,1000.25
2022-09-11T08:40:26.078Z,1000.27
2022-09-11T08:45:26.119Z,1000.31
2022-09-11T08:50:25.968Z,1000.35
2022-09-11T08:55:25.938Z,1000.42
2022-09-11T09:00:25.861Z,1000.48
2022-09-11T09:05:25.809Z,1000.45
2022-09-11T09:10:25.749Z,1000.61
2022-09-11T09:15:29.334Z,1000.63
2022-09-11T09:20:25.641Z,1000.61
2022-09-11T09:25:25.592Z,1000.72
2022-09-11T09:30:25.533Z,1000.75
2022-09-11T09:35:25.502Z,1000.75
2022-09-11T09:40:25.429Z,1000.70
2022-09-11T09:45:25.377Z,1000.69
2022-09-11T09:50:25.315Z,1000.84
2022-09-11T09:55:25.285Z,1000.90
2022-09-11T10:00:25.212Z,1000.87
2022-09-11T10:05:25.286Z,1000.88
2022-09-11T10:10:25.110Z,1000.81
2022-09-11T10:15:32.203Z,1000.82
2022-09-11T10:20:24.993Z,1000.96
2022-09-11T10:25:24.935Z,1000.94
2022-09-11T10:30:24.886Z,1000.95
2022-09-11T10:35:24.864Z,1000.90
2022-09-11T10:40:24.780Z,1000.94
2022-09-11T10:45:24.728Z,1000.98
2022-09-11T10:50:24.684Z,1000.97
2022-09-11T10:55:24.638Z,1000.95
2022-09-11T11:00:24.565Z,1000.85
2022-09-11T11:05:24.540Z,1000.80
2022-09-11T11:10:24.455Z,1000.88
2022-09-11T11:15:29.480Z,1000.84
2022-09-11T11:20:25.349Z,1000.85
2022-09-11T11:25:24.293Z,1000.83
2022-09-11T11:30:24.241Z,1000.75
2022-09-11T11:35:24.206Z,1000.78
2022-09-11T11:40:24.136Z,1000.77
2022-09-11T11:45:24.076Z,1000.83
2022-09-11T11:50:25.670Z,1000.81
2022-09-11T11:55:23.992Z,1000.80
2022-09-11T12:00:23.917Z,1000.85
2022-09-11T12:05:23.869Z,1000.87
2022-09-11T12:10:23.815Z,1000.92
2022-09-11T12:15:23.783Z,1000.77
2022-09-11T12:20:23.705Z,1000.89
2022-09-11T12:25:23.648Z,1000.81
2022-09-11T12:30:23.598Z,1000.88
2022-09-11T12:35:23.643Z,1000.86
2022-09-11T12:40:23.492Z,1000.72
2022-09-11T12:45:23.437Z,1000.72
2022-09-11T12:50:23.382Z,1000.70
2022-09-11T12:55:23.350Z,1000.69
2022-09-11T13:00:23.276Z,1000.62
2022-09-11T13:05:23.228Z,1000.62
2022-09-11T13:10:23.170Z,1000.54
2022-09-11T13:15:23.147Z,1000.51
2022-09-11T13:20:23.071Z,1000.36
2022-09-11T13:25:23.008Z,1000.32
2022-09-11T13:30:22.944Z,1000.28
2022-09-11T13:35:22.921Z,1000.21
2022-09-11T13:40:22.851Z,1000.15
2022-09-11T13:45:22.823Z,1000.17
2022-09-11T13:50:22.744Z,1000.09
2022-09-11T13:55:22.707Z,1000.08
2022-09-11T14:00:22.635Z,1000.05
2022-09-11T14:05:22.595Z,1000.02
2022-09-11T14:10:22.536Z,999.99
2022-09-11T14:15:22.507Z,1000.07
2022-09-11T14:20:22.424Z,999.96
2022-09-11T14:25:22.367Z,999.89
2022-09-11T14:30:22.317Z,999.87
2022-09-11T14:35:22.285Z,999.91
2022-09-11T14:40:22.317Z,999.82
2022-09-11T14:45:22.157Z,999.84
2022-09-11T14:50:22.109Z,999.79
2022-09-11T14:55:22.073Z,999.73
2022-09-11T15:00:22.002Z,999.71
2022-09-11T15:05:21.949Z,999.71
2022-09-11T15:10:21.895Z,999.72
2022-09-11T15:15:21.859Z,999.64
2022-09-11T15:20:21.783Z,999.56
2022-09-11T15:25:21.734Z,999.52
2022-09-11T15:30:21.678Z,999.43
2022-09-11T15:35:21.644Z,999.45
2022-09-11T15:40:21.640Z,999.48
2022-09-11T15:45:21.518Z,999.46
2022-09-11T15:50:21.466Z,999.42
2022-09-11T15:55:21.439Z,999.37
2022-09-11T16:00:21.457Z,999.32
2022-09-11T16:05:21.390Z,999.34
2022-09-11T16:10:21.256Z,999.32
2022-09-11T16:15:21.242Z,999.41
2022-09-11T16:20:28.183Z,999.41
2022-09-11T16:25:21.098Z,999.31
2022-09-11T16:30:42.245Z,999.29
2022-09-11T16:35:22.073Z,999.31
2022-09-11T16:40:20.927Z,999.27
2022-09-11T16:45:20.886Z,999.19
2022-09-11T16:50:20.841Z,999.21
2022-09-11T16:55:20.788Z,999.22
2022-09-11T17:00:20.732Z,999.23
2022-09-11T17:05:20.674Z,999.09
2022-09-11T17:10:20.617Z,999.14
2022-09-11T17:15:20.581Z,999.08
2022-09-11T17:20:20.506Z,999.08
2022-09-11T17:25:20.456Z,999.15
2022-09-11T17:30:20.398Z,999.17
2022-09-11T17:35:20.360Z,999.10
2022-09-11T17:40:20.353Z,999.11
2022-09-11T17:45:20.236Z,999.12
2022-09-11T17:50:20.179Z,999.12
2022-09-11T17:55:20.146Z,999.16
2022-09-11T18:00:20.074Z,999.20
2022-09-11T18:05:20.023Z,999.18
2022-09-11T18:10:19.965Z,999.13
2022-09-11T18:15:19.926Z,999.19
2022-09-11T18:20:19.863Z,999.22
2022-09-11T18:25:19.789Z,999.22
2022-09-11T18:30:19.940Z,999.19
2022-09-11T18:35:19.716Z,999.20
2022-09-11T18:40:19.657Z,999.30
2022-09-11T18:45:19.587Z,999.31
2022-09-11T18:50:19.529Z,999.24
2022-09-11T18:55:19.484Z,999.22
2022-09-11T19:00:19.422Z,999.24
2022-09-11T19:05:19.378Z,999.21
2022-09-11T19:10:19.299Z,999.16
2022-09-11T19:15:19.283Z,999.17
2022-09-11T19:20:19.205Z,999.17
2022-09-11T19:25:19.156Z,999.12
2022-09-11T19:30:19.083Z,999.17
2022-09-11T19:35:19.063Z,999.23
2022-09-11T19:40:19.031Z,999.25
2022-09-11T19:45:18.920Z,999.27
2022-09-11T19:50:18.876Z,999.27
2022-09-11T19:55:18.849Z,999.25
2022-09-11T20:00:18.762Z,999.27
2022-09-11T20:05:18.717Z,999.28
2022-09-11T20:10:18.706Z,999.29
2022-09-11T20:15:18.624Z,999.29
2022-09-11T20:20:18.543Z,999.28
2022-09-11T20:25:18.492Z,999.23
2022-09-11T20:30:18.432Z,999.24
2022-09-11T20:35:18.405Z,999.23
2022-09-11T20:40:18.402Z,999.16
2022-09-11T20:45:18.273Z,999.18
2022-09-11T20:50:18.221Z,999.17
2022-09-11T20:55:18.183Z,999.15
2022-09-11T21:00:18.192Z,999.10
2022-09-11T21:05:18.053Z,999.08
2022-09-11T21:10:17.999Z,999.03
2022-09-11T21:15:17.949Z,998.95
2022-09-11T21:20:17.883Z,998.88
2022-09-11T21:25:17.832Z,998.88
2022-09-11T21:30:17.788Z,998.98
2022-09-11T21:35:17.737Z,998.96
2022-09-11T21:40:17.666Z,998.91
2022-09-11T21:45:17.608Z,998.88
2022-09-11T21:50:17.551Z,998.85
2022-09-11T21:55:17.522Z,998.80
2022-09-11T22:00:17.446Z,998.84
2022-09-11T22:05:17.610Z,998.87
2022-09-11T22:10:17.339Z,998.87
2022-09-11T22:15:17.301Z,998.81
2022-09-11T22:20:24.468Z,998.80
2022-09-11T22:25:17.170Z,998.78
2022-09-11T22:30:17.121Z,998.87
2022-09-11T22:35:17.080Z,998.80
2022-09-11T22:40:17.021Z,998.78
2022-09-11T22:45:16.944Z,998.74
2022-09-11T22:50:16.901Z,998.69
2022-09-11T22:55:16.868Z,998.63
2022-09-11T23:00:16.796Z,998.70
2022-09-11T23:05:16.737Z,998.65
2022-09-11T23:10:16.789Z,998.67
2022-09-11T23:15:16.648Z,998.63
2022-09-11T23:20:16.573Z,998.56
2022-09-11T23:25:16.522Z,998.52
